createdAt,value
2019-03-26T00:01:55.009Z,5.40
2019-03-26T00:04:23.391Z,5.41
2019-03-26T00:06:51.786Z,5.43
2019-03-26T00:09:20.219Z,5.48
2019-03-26T00:11:48.607Z,5.49
2019-03-26T00:14:17.070Z,5.47
2019-03-26T00:16:45.497Z,5.46
2019-03-26T00:19:13.894Z,5.48
2019-03-26T00:21:42.290Z,5.50
2019-03-26T00:24:11.284Z,5.50
2019-03-26T00:26:39.960Z,5.49
2019-03-26T00:29:08.358Z,5.51
2019-03-26T00:31:36.773Z,5.54
2019-03-26T00:34:18.334Z,5.53
2019-03-26T00:36:35.283Z,5.51
2019-03-26T00:39:05.817Z,5.55
2019-03-26T00:41:34.213Z,5.59
2019-03-26T00:44:02.617Z,5.58
2019-03-26T00:46:31.032Z,5.58
2019-03-26T00:48:59.423Z,5.58
2019-03-26T00:51:27.833Z,5.58
2019-03-26T00:53:56.313Z,5.58
2019-03-26T00:56:24.712Z,5.55
2019-03-26T00:58:53.388Z,5.56
2019-03-26T01:01:21.780Z,5.57
2019-03-26T01:03:50.175Z,5.60
2019-03-26T01:06:18.591Z,5.60
2019-03-26T01:08:47.052Z,5.61
2019-03-26T01:11:15.446Z,5.57
2019-03-26T01:13:43.861Z,5.62
2019-03-26T01:16:12.251Z,5.64
2019-03-26T01:18:40.655Z,5.59
2019-03-26T01:21:09.059Z,5.63
2019-03-26T01:23:37.789Z,5.59
2019-03-26T01:26:06.186Z,5.61
2019-03-26T01:28:34.942Z,5.57
2019-03-26T01:31:03.338Z,5.52
2019-03-26T01:33:32.004Z,5.52
2019-03-26T01:36:00.427Z,5.48
2019-03-26T01:38:28.899Z,5.47
2019-03-26T01:40:57.289Z,5.49
2019-03-26T01:43:25.731Z,5.45
2019-03-26T01:45:54.125Z,5.44
2019-03-26T01:48:22.530Z,5.43
2019-03-26T01:50:50.942Z,5.41
2019-03-26T01:53:20.415Z,5.40
2019-03-26T01:55:48.817Z,5.44
2019-03-26T01:58:17.241Z,5.43
2019-03-26T02:00:45.629Z,5.41
2019-03-26T02:03:14.026Z,5.43
2019-03-26T02:05:42.433Z,5.46
2019-03-26T02:08:10.829Z,5.46
2019-03-26T02:10:39.221Z,5.46
2019-03-26T02:13:08.207Z,5.48
2019-03-26T02:15:36.596Z,5.48
2019-03-26T02:18:05.783Z,5.49
2019-03-26T02:20:34.334Z,5.51
2019-03-26T02:23:02.866Z,5.50
2019-03-26T02:25:31.262Z,5.50
2019-03-26T02:27:59.677Z,5.53
2019-03-26T02:30:28.717Z,5.52
2019-03-26T02:32:57.823Z,5.46
2019-03-26T02:35:26.232Z,5.44
2019-03-26T02:37:54.637Z,5.41
2019-03-26T02:40:23.201Z,5.47
2019-03-26T02:42:51.616Z,5.47
2019-03-26T02:45:20.014Z,5.49
2019-03-26T02:47:48.690Z,5.52
2019-03-26T02:50:17.204Z,5.47
2019-03-26T02:52:45.573Z,5.44
2019-03-26T02:55:14.034Z,5.38
2019-03-26T02:57:43.101Z,5.34
2019-03-26T03:00:11.833Z,5.32
2019-03-26T03:02:40.222Z,5.31
2019-03-26T03:05:09.571Z,5.27
2019-03-26T03:07:37.969Z,5.25
2019-03-26T03:10:07.198Z,5.22
2019-03-26T03:12:35.616Z,5.21
2019-03-26T03:15:05.647Z,5.20
2019-03-26T03:17:34.034Z,5.17
2019-03-26T03:20:03.523Z,5.22
2019-03-26T03:22:31.917Z,5.19
2019-03-26T03:25:00.536Z,5.17
2019-03-26T03:27:29.016Z,5.22
2019-03-26T03:29:57.488Z,5.22
2019-03-26T03:32:26.246Z,5.19
2019-03-26T03:34:54.651Z,5.18
2019-03-26T03:37:23.036Z,5.17
2019-03-26T03:39:51.527Z,5.18
2019-03-26T03:42:19.917Z,5.17
2019-03-26T03:44:48.309Z,5.12
2019-03-26T03:47:19.031Z,5.07
2019-03-26T03:49:47.860Z,5.03
2019-03-26T03:52:17.696Z,5.02
2019-03-26T03:54:47.795Z,5.02
2019-03-26T03:57:17.960Z,5.00
2019-03-26T03:59:47.004Z,4.97
2019-03-26T04:02:15.418Z,4.95
2019-03-26T04:04:43.827Z,4.94
2019-03-26T04:07:12.212Z,4.93
2019-03-26T04:09:41.110Z,4.93
2019-03-26T04:12:09.495Z,4.96
2019-03-26T04:14:37.880Z,4.97
2019-03-26T04:17:06.297Z,4.97
2019-03-26T04:19:34.692Z,4.99
2019-03-26T04:22:03.104Z,5.17
2019-03-26T04:24:31.505Z,5.27
2019-03-26T04:26:59.905Z,5.37
2019-03-26T04:29:28.297Z,5.40
2019-03-26T04:31:56.731Z,5.44
2019-03-26T04:34:25.139Z,5.50
2019-03-26T04:36:53.508Z,5.60
2019-03-26T04:39:21.926Z,5.83
2019-03-26T04:41:50.322Z,5.92
2019-03-26T04:44:18.719Z,5.95
2019-03-26T04:46:47.173Z,5.95
2019-03-26T04:49:15.570Z,5.85
2019-03-26T04:51:43.953Z,5.67
2019-03-26T04:54:12.369Z,5.53
2019-03-26T04:56:40.798Z,5.48
2019-03-26T04:59:09.197Z,5.45
2019-03-26T05:01:37.615Z,5.39
2019-03-26T05:04:06.009Z,5.37
2019-03-26T05:06:38.192Z,5.34
2019-03-26T05:09:05.351Z,5.31
2019-03-26T05:11:33.733Z,5.37
2019-03-26T05:14:02.162Z,5.35
2019-03-26T05:16:30.913Z,5.30
2019-03-26T05:19:00.923Z,5.26
2019-03-26T05:21:31.465Z,5.20
2019-03-26T05:24:00.303Z,5.14
2019-03-26T05:26:29.312Z,5.10
2019-03-26T05:28:57.728Z,5.07
2019-03-26T05:31:26.121Z,5.07
2019-03-26T05:33:54.956Z,5.05
2019-03-26T05:36:23.507Z,5.02
2019-03-26T05:38:52.153Z,4.99
2019-03-26T05:41:20.814Z,4.98
2019-03-26T05:43:49.231Z,4.97
2019-03-26T05:46:17.623Z,4.94
2019-03-26T05:48:46.032Z,4.92
2019-03-26T05:51:14.466Z,4.89
2019-03-26T05:53:42.865Z,4.87
2019-03-26T05:56:13.995Z,4.86
2019-03-26T05:58:42.385Z,4.86
2019-03-26T06:01:11.167Z,4.88
2019-03-26T06:03:39.718Z,4.93
2019-03-26T06:06:08.111Z,4.94
2019-03-26T06:08:36.529Z,4.93
2019-03-26T06:11:05.680Z,4.96
2019-03-26T06:13:34.930Z,4.99
2019-03-26T06:16:03.282Z,5.02
2019-03-26T06:18:31.941Z,5.08
2019-03-26T06:21:00.364Z,5.15
2019-03-26T06:23:28.764Z,5.23
2019-03-26T06:25:57.195Z,5.32
2019-03-26T06:28:25.620Z,5.47
2019-03-26T06:30:54.363Z,5.60
2019-03-26T06:33:22.760Z,5.65
2019-03-26T06:35:51.349Z,5.72
2019-03-26T06:38:19.738Z,5.80
2019-03-26T06:40:48.135Z,5.89
2019-03-26T06:43:16.556Z,5.95
2019-03-26T06:45:44.956Z,5.98
2019-03-26T06:48:13.344Z,5.99
2019-03-26T06:50:41.757Z,6.14
2019-03-26T06:53:10.146Z,6.34
2019-03-26T06:55:39.108Z,6.41
2019-03-26T06:58:07.532Z,6.45
2019-03-26T07:00:36.094Z,6.48
2019-03-26T07:03:06.525Z,6.48
2019-03-26T07:05:34.970Z,6.50
2019-03-26T07:08:03.434Z,6.65
2019-03-26T07:10:31.897Z,6.75
2019-03-26T07:13:00.314Z,6.77
2019-03-26T07:15:28.707Z,6.74
2019-03-26T07:17:57.097Z,6.68
2019-03-26T07:20:25.512Z,6.66
2019-03-26T07:22:54.077Z,6.72
2019-03-26T07:25:22.537Z,6.87
2019-03-26T07:27:50.952Z,6.95
2019-03-26T07:30:38.620Z,7.21
2019-03-26T07:33:07.031Z,7.40
2019-03-26T07:35:35.430Z,7.46
2019-03-26T07:38:03.986Z,7.48
2019-03-26T07:40:32.566Z,7.53
2019-03-26T07:43:00.958Z,7.51
2019-03-26T07:45:29.420Z,7.49
2019-03-26T07:47:57.835Z,7.59
2019-03-26T07:50:26.229Z,7.70
2019-03-26T07:52:54.655Z,7.89
2019-03-26T07:55:23.075Z,7.90
2019-03-26T07:57:51.544Z,7.79
2019-03-26T08:00:25.762Z,7.71
2019-03-26T08:02:54.179Z,7.63
2019-03-26T08:05:29.698Z,7.51
2019-03-26T08:07:58.167Z,7.50
2019-03-26T08:10:22.859Z,7.42
2019-03-26T08:12:51.267Z,7.38
2019-03-26T08:15:20.338Z,7.30
2019-03-26T08:17:48.945Z,7.27
2019-03-26T08:20:17.407Z,7.24
2019-03-26T08:22:45.809Z,7.22
2019-03-26T08:25:14.289Z,7.24
2019-03-26T08:27:42.689Z,7.37
2019-03-26T08:30:11.520Z,7.44
2019-03-26T08:32:39.937Z,7.42
2019-03-26T08:35:08.399Z,7.55
2019-03-26T08:37:36.813Z,7.59
2019-03-26T08:40:07.470Z,7.58
2019-03-26T08:42:35.860Z,7.51
2019-03-26T08:45:08.308Z,7.47
2019-03-26T08:47:36.746Z,7.44
2019-03-26T08:50:07.074Z,7.44
2019-03-26T08:52:35.521Z,7.44
2019-03-26T08:55:05.358Z,7.43
2019-03-26T08:57:34.021Z,7.40
2019-03-26T09:00:02.416Z,7.43
2019-03-26T09:02:30.837Z,7.49
2019-03-26T09:04:59.228Z,7.40
2019-03-26T09:07:27.617Z,7.44
2019-03-26T09:09:56.027Z,7.46
2019-03-26T09:12:24.419Z,7.49
2019-03-26T09:14:53.061Z,7.53
2019-03-26T09:17:21.479Z,7.54
2019-03-26T09:19:49.870Z,7.56
2019-03-26T09:22:18.285Z,7.66
2019-03-26T09:24:46.675Z,7.67
2019-03-26T09:27:15.090Z,7.75
2019-03-26T09:29:43.754Z,7.79
2019-03-26T09:32:12.437Z,7.83
2019-03-26T09:34:40.860Z,7.80
2019-03-26T09:37:09.247Z,7.72
2019-03-26T09:39:38.482Z,7.76
2019-03-26T09:42:07.053Z,7.87
2019-03-26T09:44:35.443Z,7.82
2019-03-26T09:47:15.658Z,7.84
2019-03-26T09:49:34.344Z,7.94
2019-03-26T09:52:02.679Z,8.06
2019-03-26T09:54:31.091Z,8.13
2019-03-26T09:56:59.552Z,8.18
2019-03-26T09:59:27.949Z,8.46
2019-03-26T10:01:56.369Z,8.68
2019-03-26T10:04:25.041Z,8.62
2019-03-26T10:06:53.435Z,8.62
2019-03-26T10:09:21.851Z,8.63
2019-03-26T10:11:50.245Z,8.66
2019-03-26T10:14:18.634Z,8.56
2019-03-26T10:16:47.229Z,8.67
2019-03-26T10:19:17.138Z,8.81
2019-03-26T10:21:45.760Z,9.20
2019-03-26T10:24:14.353Z,9.63
2019-03-26T10:26:42.745Z,9.80
2019-03-26T10:29:28.815Z,10.01
2019-03-26T10:31:41.304Z,10.16
2019-03-26T10:34:09.705Z,10.51
2019-03-26T10:36:41.455Z,10.76
2019-03-26T10:39:08.986Z,11.18
2019-03-26T10:41:37.488Z,11.25
2019-03-26T10:44:05.859Z,11.24
2019-03-26T10:46:34.282Z,11.56
2019-03-26T10:49:02.674Z,12.07
2019-03-26T10:51:31.069Z,12.59
2019-03-26T10:53:59.491Z,12.47
2019-03-26T10:56:27.889Z,12.16
2019-03-26T10:58:56.312Z,11.99
2019-03-26T11:01:24.758Z,11.82
2019-03-26T11:03:53.151Z,11.73
2019-03-26T11:06:21.714Z,11.66
2019-03-26T11:08:50.143Z,11.54
2019-03-26T11:11:18.541Z,11.46
2019-03-26T11:13:46.935Z,11.50
2019-03-26T11:16:15.363Z,11.45
2019-03-26T11:18:43.760Z,11.41
2019-03-26T11:21:12.157Z,11.32
2019-03-26T11:23:40.585Z,11.25
2019-03-26T11:26:09.004Z,11.16
2019-03-26T11:28:37.399Z,11.05
2019-03-26T11:31:06.001Z,11.31
2019-03-26T11:33:34.423Z,11.84
2019-03-26T11:36:02.832Z,12.40
2019-03-26T11:38:31.224Z,12.58
2019-03-26T11:40:59.646Z,12.46
2019-03-26T11:43:28.956Z,12.36
2019-03-26T11:45:57.342Z,12.26
2019-03-26T11:48:25.779Z,12.28
2019-03-26T11:50:54.175Z,12.30
2019-03-26T11:53:22.738Z,12.33
2019-03-26T11:55:51.158Z,12.07
2019-03-26T11:58:29.815Z,11.96
2019-03-26T12:00:49.695Z,11.79
2019-03-26T12:03:18.117Z,11.61
2019-03-26T12:05:46.830Z,11.42
2019-03-26T12:08:15.246Z,11.32
2019-03-26T12:10:43.655Z,11.47
2019-03-26T12:13:12.066Z,11.56
2019-03-26T12:15:40.489Z,11.62
2019-03-26T12:18:09.251Z,12.07
2019-03-26T12:20:37.649Z,12.47
2019-03-26T12:23:06.102Z,12.72
2019-03-26T12:25:34.488Z,12.72
2019-03-26T12:28:02.904Z,12.48
2019-03-26T12:30:33.981Z,12.50
2019-03-26T12:33:02.373Z,12.28
2019-03-26T12:35:31.240Z,12.12
2019-03-26T12:37:59.802Z,12.07
2019-03-26T12:40:28.383Z,12.18
2019-03-26T12:42:56.832Z,12.17
2019-03-26T12:45:25.183Z,12.31
2019-03-26T12:47:53.578Z,12.55
2019-03-26T12:50:21.974Z,12.66
2019-03-26T12:52:50.397Z,12.46
2019-03-26T12:55:18.803Z,12.38
2019-03-26T12:57:47.203Z,12.34
2019-03-26T13:00:15.864Z,12.38
2019-03-26T13:02:44.266Z,12.35
2019-03-26T13:05:13.021Z,12.15
2019-03-26T13:07:41.417Z,11.88
2019-03-26T13:10:13.741Z,11.66
2019-03-26T13:12:40.325Z,11.48
2019-03-26T13:15:08.959Z,11.41
2019-03-26T13:17:37.374Z,11.52
2019-03-26T13:20:07.274Z,11.54
2019-03-26T13:22:35.683Z,11.50
2019-03-26T13:25:06.121Z,11.43
2019-03-26T13:27:34.536Z,11.43
2019-03-26T13:30:03.103Z,11.31
2019-03-26T13:32:31.502Z,11.19
2019-03-26T13:34:59.921Z,11.43
2019-03-26T13:37:28.326Z,11.40
2019-03-26T13:39:56.718Z,11.28
2019-03-26T13:42:25.140Z,11.15
2019-03-26T13:44:53.546Z,11.01
2019-03-26T13:47:21.939Z,10.91
2019-03-26T13:49:50.350Z,10.75
2019-03-26T13:52:19.074Z,10.68
2019-03-26T13:54:47.476Z,10.92
2019-03-26T13:57:15.893Z,10.97
2019-03-26T13:59:44.342Z,11.19
2019-03-26T14:02:12.692Z,11.32
2019-03-26T14:04:41.117Z,11.47
2019-03-26T14:07:09.512Z,11.59
2019-03-26T14:09:37.908Z,11.44
2019-03-26T14:12:06.327Z,11.47
2019-03-26T14:14:34.725Z,11.55
2019-03-26T14:17:05.551Z,11.92
2019-03-26T14:19:33.271Z,12.23
2019-03-26T14:22:01.678Z,12.47
2019-03-26T14:24:30.076Z,12.48
2019-03-26T14:26:58.492Z,12.68
2019-03-26T14:29:26.889Z,12.72
2019-03-26T14:31:55.295Z,12.67
2019-03-26T14:34:23.771Z,12.60
2019-03-26T14:36:52.173Z,12.38
2019-03-26T14:39:20.565Z,12.06
2019-03-26T14:41:48.981Z,11.88
2019-03-26T14:44:17.384Z,11.74
2019-03-26T14:46:45.780Z,11.58
2019-03-26T14:49:14.202Z,11.50
2019-03-26T14:51:42.600Z,11.49
2019-03-26T14:54:11.001Z,11.47
2019-03-26T14:56:39.419Z,11.48
2019-03-26T14:59:07.883Z,11.61
2019-03-26T15:01:36.249Z,11.53
2019-03-26T15:04:04.833Z,11.17
2019-03-26T15:06:33.242Z,10.89
2019-03-26T15:09:01.634Z,10.75
2019-03-26T15:11:30.069Z,10.64
2019-03-26T15:13:58.467Z,10.60
2019-03-26T15:16:26.864Z,10.53
2019-03-26T15:18:55.299Z,10.49
2019-03-26T15:21:23.694Z,10.45
2019-03-26T15:23:52.135Z,10.33
2019-03-26T15:26:20.512Z,10.24
2019-03-26T15:28:48.903Z,10.32
2019-03-26T15:31:17.384Z,10.38
2019-03-26T15:33:45.870Z,10.38
2019-03-26T15:36:14.253Z,10.36
2019-03-26T15:38:43.033Z,10.27
2019-03-26T15:41:21.023Z,10.25
2019-03-26T15:43:41.931Z,10.22
2019-03-26T15:46:10.378Z,10.12
2019-03-26T15:48:38.773Z,9.90
2019-03-26T15:51:07.176Z,9.73
2019-03-26T15:53:35.605Z,9.55
2019-03-26T15:56:04.072Z,9.44
2019-03-26T15:58:32.469Z,9.40
2019-03-26T16:01:01.122Z,9.37
2019-03-26T16:03:29.512Z,9.32
2019-03-26T16:05:57.902Z,9.23
2019-03-26T16:08:26.318Z,9.18
2019-03-26T16:10:54.711Z,9.20
2019-03-26T16:13:23.106Z,9.19
2019-03-26T16:15:51.961Z,9.18
2019-03-26T16:18:20.502Z,9.11
2019-03-26T16:20:48.983Z,9.12
2019-03-26T16:23:17.380Z,9.09
2019-03-26T16:25:45.771Z,9.00
2019-03-26T16:28:14.175Z,8.95
2019-03-26T16:30:42.582Z,8.92
2019-03-26T16:33:10.992Z,8.85
2019-03-26T16:35:40.426Z,8.80
2019-03-26T16:38:08.868Z,8.76
2019-03-26T16:40:37.290Z,8.74
2019-03-26T16:43:05.853Z,8.72
2019-03-26T16:45:34.257Z,8.68
2019-03-26T16:48:02.687Z,8.66
2019-03-26T16:50:31.071Z,8.60
2019-03-26T16:52:59.467Z,8.49
2019-03-26T16:55:27.877Z,8.46
2019-03-26T16:57:56.271Z,8.46
2019-03-26T17:00:32.009Z,8.45
2019-03-26T17:03:01.096Z,8.47
2019-03-26T17:05:29.784Z,8.46
2019-03-26T17:07:58.185Z,8.43
2019-03-26T17:10:26.598Z,8.41
2019-03-26T17:12:54.995Z,8.41
2019-03-26T17:15:23.393Z,8.42
2019-03-26T17:17:51.817Z,8.42
2019-03-26T17:20:20.209Z,8.45
2019-03-26T17:22:48.602Z,8.49
2019-03-26T17:25:17.018Z,8.47
2019-03-26T17:27:45.411Z,8.49
2019-03-26T17:30:14.167Z,8.47
2019-03-26T17:32:42.587Z,8.46
2019-03-26T17:35:11.532Z,8.44
2019-03-26T17:37:39.924Z,8.42
2019-03-26T17:40:08.576Z,8.40
2019-03-26T17:42:36.998Z,8.43
2019-03-26T17:45:07.091Z,8.46
2019-03-26T17:47:35.480Z,8.44
2019-03-26T17:50:07.709Z,8.40
2019-03-26T17:52:36.104Z,8.36
2019-03-26T17:55:07.040Z,8.35
2019-03-26T17:57:35.744Z,8.36
2019-03-26T18:00:06.179Z,8.34
2019-03-26T18:02:34.577Z,8.33
2019-03-26T18:05:03.064Z,8.33
2019-03-26T18:07:31.466Z,8.34
2019-03-26T18:10:00.379Z,8.36
2019-03-26T18:12:31.048Z,8.37
2019-03-26T18:14:58.891Z,8.38
2019-03-26T18:17:27.317Z,8.35
2019-03-26T18:19:55.711Z,8.32
2019-03-26T18:22:24.141Z,8.33
2019-03-26T18:24:52.559Z,8.32
2019-03-26T18:27:20.937Z,8.32
2019-03-26T18:29:49.347Z,8.31
2019-03-26T18:32:17.741Z,8.28
2019-03-26T18:34:46.140Z,8.26
2019-03-26T18:37:14.559Z,8.22
2019-03-26T18:39:43.289Z,8.19
2019-03-26T18:42:11.681Z,8.18
2019-03-26T18:44:40.105Z,8.15
2019-03-26T18:47:08.504Z,8.09
2019-03-26T18:49:36.895Z,8.07
2019-03-26T18:52:05.318Z,8.06
2019-03-26T18:54:33.710Z,8.05
2019-03-26T18:57:02.108Z,8.01
2019-03-26T18:59:30.537Z,7.97
2019-03-26T19:01:58.934Z,7.91
2019-03-26T19:04:27.335Z,7.88
2019-03-26T19:06:55.757Z,7.84
2019-03-26T19:09:24.154Z,7.80
2019-03-26T19:11:52.562Z,7.77
2019-03-26T19:14:20.971Z,7.73
2019-03-26T19:16:49.370Z,7.72
2019-03-26T19:19:17.763Z,7.71
2019-03-26T19:21:46.176Z,7.69
2019-03-26T19:24:15.447Z,7.68
2019-03-26T19:26:43.843Z,7.67
2019-03-26T19:29:12.255Z,7.68
2019-03-26T19:31:40.645Z,7.70
2019-03-26T19:34:09.048Z,7.71
2019-03-26T19:36:37.461Z,7.74
2019-03-26T19:39:07.307Z,7.77
2019-03-26T19:41:35.869Z,7.83
2019-03-26T19:44:04.288Z,7.90
2019-03-26T19:46:32.678Z,8.14
2019-03-26T19:49:01.078Z,8.09
2019-03-26T19:51:29.482Z,7.90
2019-03-26T19:53:57.887Z,7.78
2019-03-26T19:56:26.281Z,7.65
2019-03-26T19:58:54.692Z,7.57
2019-03-26T20:01:23.098Z,7.53
2019-03-26T20:03:51.491Z,7.56
2019-03-26T20:06:19.921Z,7.83
2019-03-26T20:08:48.323Z,7.99
2019-03-26T20:11:16.716Z,8.02
2019-03-26T20:13:45.141Z,8.01
2019-03-26T20:16:13.540Z,7.96
2019-03-26T20:18:41.937Z,7.85
2019-03-26T20:21:10.356Z,7.75
2019-03-26T20:23:38.764Z,7.68
2019-03-26T20:26:07.150Z,7.63
2019-03-26T20:28:35.566Z,7.61
2019-03-26T20:31:03.958Z,7.58
2019-03-26T20:33:32.357Z,7.56
2019-03-26T20:36:01.095Z,7.54
2019-03-26T20:38:29.486Z,7.52
2019-03-26T20:40:57.873Z,7.51
2019-03-26T20:43:36.731Z,7.51
2019-03-26T20:45:56.721Z,7.50
2019-03-26T20:48:25.121Z,7.50
2019-03-26T20:50:53.539Z,7.46
2019-03-26T20:53:21.929Z,7.45
2019-03-26T20:55:54.425Z,7.43
2019-03-26T20:58:20.760Z,7.42
2019-03-26T21:00:49.187Z,7.38
2019-03-26T21:03:17.556Z,7.34
2019-03-26T21:05:45.979Z,7.27
2019-03-26T21:08:14.377Z,7.24
2019-03-26T21:10:42.773Z,7.19
2019-03-26T21:13:11.207Z,7.13
2019-03-26T21:15:42.619Z,7.11
2019-03-26T21:18:09.713Z,7.08
2019-03-26T21:20:38.209Z,7.06
2019-03-26T21:23:06.535Z,7.03
2019-03-26T21:25:35.295Z,7.02
2019-03-26T21:28:03.882Z,7.02
2019-03-26T21:30:32.272Z,7.01
2019-03-26T21:33:00.663Z,7.03
2019-03-26T21:35:29.210Z,6.99
2019-03-26T21:37:57.662Z,6.94
2019-03-26T21:40:27.694Z,6.91
2019-03-26T21:42:56.113Z,6.90
2019-03-26T21:45:27.553Z,6.90
2019-03-26T21:47:55.968Z,6.88
2019-03-26T21:50:24.365Z,6.88
2019-03-26T21:52:52.768Z,6.84
2019-03-26T21:55:21.185Z,6.79
2019-03-26T21:57:49.579Z,6.78
2019-03-26T22:00:18.252Z,6.76
2019-03-26T22:02:46.645Z,6.77
2019-03-26T22:05:15.232Z,6.76
2019-03-26T22:07:43.653Z,6.75
2019-03-26T22:10:12.490Z,6.72
2019-03-26T22:12:40.886Z,6.67
2019-03-26T22:15:10.547Z,6.67
2019-03-26T22:17:38.944Z,6.65
2019-03-26T22:20:07.784Z,6.64
2019-03-26T22:22:36.205Z,6.62
2019-03-26T22:25:06.534Z,6.64
2019-03-26T22:27:34.928Z,6.74
2019-03-26T22:30:03.618Z,6.80
2019-03-26T22:32:32.022Z,7.01
2019-03-26T22:35:01.069Z,7.27
2019-03-26T22:37:29.460Z,7.32
2019-03-26T22:39:58.188Z,7.31
2019-03-26T22:42:26.607Z,7.29
2019-03-26T22:44:54.998Z,7.28
2019-03-26T22:47:23.732Z,7.21
2019-03-26T22:49:52.161Z,7.11
2019-03-26T22:52:20.551Z,7.05
2019-03-26T22:54:48.941Z,6.93
2019-03-26T22:57:17.376Z,6.86
2019-03-26T22:59:45.784Z,6.83
2019-03-26T23:02:14.180Z,6.81
2019-03-26T23:04:42.577Z,6.82
2019-03-26T23:07:10.983Z,6.88
2019-03-26T23:09:39.400Z,6.87
2019-03-26T23:12:07.795Z,6.88
2019-03-26T23:14:45.139Z,7.01
2019-03-26T23:17:06.410Z,7.05
2019-03-26T23:19:35.118Z,7.23
2019-03-26T23:22:03.514Z,7.24
2019-03-26T23:24:31.951Z,7.20
2019-03-26T23:27:00.343Z,7.18
2019-03-26T23:29:28.744Z,7.20
2019-03-26T23:31:57.245Z,7.20
2019-03-26T23:34:25.583Z,7.23
2019-03-26T23:36:53.983Z,7.24
2019-03-26T23:39:22.382Z,7.23
2019-03-26T23:41:50.773Z,7.26
2019-03-26T23:44:25.641Z,7.30
2019-03-26T23:46:49.321Z,7.28
2019-03-26T23:49:17.715Z,7.24
2019-03-26T23:51:46.129Z,7.23
2019-03-26T23:54:14.531Z,7.27
2019-03-26T23:56:42.923Z,7.30
2019-03-26T23:59:11.344Z,7.27
